Aérodrome :
LOGIN :

S'inscrire | Disclaimer

   EN    FR    IT 

 










Légende :    VFR   VFR Marginal   IFR   IFR Intensif   IFR Très Intensif
Visi : 
Plafond : 
>= 8 km
>= 3000ft
5 à 8 km
1000 à 3000 ft
1500m à 5 km
500 à 1000 ft
800 à 1500m
200 à 500 ft
< 800m
< 200 ft
Symboles :   Orages  Brouillard  Fortes neiges  Fortes précipitations  Vent > 20 kt
SIGMETs :   Divers  Orages  Givrage  Turbulence  Onde Orograph.  Cendres Volcan.







- Altitude de l'aérodrome : 289 ft
- Voir les cartes d'approche


LFYR - Romorantin Pruniers

DERNIER METAR :
  • 210100Z AUTO 19007KT CAVOK 15/13 Q1014

METARs EXPIRÉS :
  • 210030Z AUTO 18007KT CAVOK 14/12 Q1014
  • 210000Z AUTO 19007KT CAVOK 14/13 Q1014
  • 202330Z AUTO 18005KT CAVOK 13/12 Q1014
  • 202300Z AUTO 17006KT CAVOK 13/12 Q1015
  • 202230Z AUTO 19005KT 9999 FEW028 12/11 Q1015

Prévision TAF périmée.
Pas de NOTAMs connus pour ce terrain.
1 SIGMET publié pour la FIR Paris (LFFF) :
 
Turbulence forte
LFFF SIGMET 5 VALID 202300/210300 LFPW
LFFF PARIS FIR/UIR SEV TURB FCST WI N4845 W00015 - N5000 W00015 - N5100 E00145 - N4945 E00145 SFC/FL060 MOV E 25KT NC=



MET'MAP, la Météo Aéronautique d'un coup d'oeil ! - Copyright ORBIFLY Décembre 2007 - Disclaimer

ORBIFLY MET'MAP TEAM :

Programmation & Développement : Alexandra Zaïnal
Conception & Développement : Baudouin d'Aumeries
Co-Programmation & Développement : Marc-Olivier Méhu
Soutien technique & logistique : Manuel Goepfert

Contact : metmap@orbifly.com




SOURCES & CREDITS :

   NOAA